Starbuck, Washington
Current Conditions -  °F | °C
As of 6:53 AM on Sunday 21 Dec 2014 (Local Time) from KALW Reporting Station
Scattered Clouds Scattered Clouds  
Wind Chill: 53°   Ceiling: Unl
Heat Index: 53°   Visibility: 10mi
Dew Point: 43°   Wind: 22mph
Humidity: 69%   Direction: 230°SW
Pressure: 29.78"   Gusts: NA
Location:  46.52°N, 118.13°W
Report Text: KALW 211453Z 23019KT 10SM SCT110 12/06 A2978 RMK AO2 PK WND 24027/1415 SLP086 T01170061 53033
Loading
Personal Weather Stations






























Interactive Weather Map New forecast layout! Learn more

10-Day Weather Forecast

Advertisements
Track Severe Weather on mobile